Time;durP1;ratioP1;P1;durP2;ratioP2;P2;SDS_P1;SDS_P2;PMS_P1;PMS_P2;Temp;Humidity;BMP_temperature;BMP_pressure;BME280_temperature;BME280_humidity;BME280_pressure;Samples;Min_cycle;Max_cycle;Signal;HPM_P1;HPM_P2
2023/01/22 00:01:23;;;;;;;3.40;3.20;;;15.90;59.20;;;;;;5065203;28;20094;-9
2023/01/22 00:03:48;;;;;;;3.63;3.42;;;16.00;58.90;;;;;;5062932;28;20049;-8
2023/01/22 00:06:14;;;;;;;3.92;2.97;;;15.90;58.80;;;;;;5067700;28;20055;-9
2023/01/22 00:08:40;;;;;;;3.15;2.95;;;15.90;58.90;;;;;;5068317;28;20053;-9
2023/01/22 00:11:05;;;;;;;3.63;3.42;;;15.80;59.30;;;;;;5063114;28;21857;-9
2023/01/22 00:13:31;;;;;;;3.40;3.20;;;15.90;58.90;;;;;;5062013;28;20056;-8
2023/01/22 00:15:57;;;;;;;3.25;3.05;;;15.80;59.00;;;;;;5062239;28;20045;-8
2023/01/22 00:18:22;;;;;;;3.50;3.30;;;15.90;58.80;;;;;;5063302;28;20048;-9
2023/01/22 00:20:49;;;;;;;3.53;3.33;;;15.80;58.90;;;;;;5065746;28;20277;-18
2023/01/22 00:23:15;;;;;;;3.50;3.30;;;15.80;59.00;;;;;;5067076;28;20040;-8
2023/01/22 00:25:41;;;;;;;3.50;3.30;;;15.90;58.80;;;;;;5069258;28;20047;-9
2023/01/22 00:28:06;;;;;;;3.33;3.13;;;16.00;58.70;;;;;;5066260;28;20159;-13
2023/01/22 00:30:32;;;;;;;3.10;2.90;;;15.80;58.90;;;;;;5064513;28;20487;-9
2023/01/22 00:32:57;;;;;;;3.25;3.05;;;15.70;59.00;;;;;;5061327;28;20094;-8
2023/01/22 00:35:23;;;;;;;3.22;3.03;;;15.60;59.30;;;;;;5064654;28;20041;-16
2023/01/22 00:37:48;;;;;;;3.45;3.25;;;15.60;59.20;;;;;;5059769;28;20045;-9
2023/01/22 00:40:15;;;;;;;3.70;3.50;;;15.50;59.30;;;;;;5064293;28;20110;-9
2023/01/22 00:42:40;;;;;;;3.42;3.22;;;15.60;59.20;;;;;;5068178;28;20056;-9
2023/01/22 00:45:06;;;;;;;3.03;2.92;;;15.50;59.40;;;;;;5065020;28;20488;-9
2023/01/22 00:47:32;;;;;;;3.15;2.97;;;15.50;59.40;;;;;;5060636;28;20155;-12
2023/01/22 00:49:58;;;;;;;3.30;3.10;;;15.60;59.20;;;;;;5060957;28;20036;-8
2023/01/22 00:52:24;;;;;;;3.08;2.88;;;15.60;59.20;;;;;;5063582;28;20036;-9
2023/01/22 00:54:49;;;;;;;3.17;2.97;;;15.50;59.30;;;;;;5059234;28;20114;-10
2023/01/22 00:57:20;;;;;;;3.08;2.88;;;15.50;59.30;;;;;;5061317;28;20056;-9
2023/01/22 00:59:46;;;;;;;2.60;2.50;;;15.50;59.40;;;;;;5062649;28;20032;-10
2023/01/22 01:02:12;;;;;;;2.90;2.80;;;15.40;59.40;;;;;;5065584;28;20045;-8
2023/01/22 01:04:37;;;;;;;3.00;2.80;;;15.50;59.40;;;;;;5060868;28;20070;-9
2023/01/22 01:07:03;;;;;;;3.17;2.97;;;15.40;59.40;;;;;;5064446;28;20380;-8
2023/01/22 01:09:29;;;;;;;3.45;3.25;;;15.40;59.50;;;;;;5062207;28;20050;-8
2023/01/22 01:11:54;;;;;;;3.15;2.95;;;15.40;59.40;;;;;;5058985;28;20044;-8
2023/01/22 01:14:20;;;;;;;2.88;2.70;;;15.40;59.40;;;;;;5062167;28;20449;-9
2023/01/22 01:16:47;;;;;;;2.67;2.58;;;15.40;59.50;;;;;;5060747;28;20056;-8
2023/01/22 01:19:14;;;;;;;3.40;3.20;;;15.40;59.50;;;;;;5076829;28;20036;-17
2023/01/22 01:21:40;;;;;;;2.97;2.78;;;15.40;59.40;;;;;;5065223;28;20028;-12
2023/01/22 01:24:05;;;;;;;2.83;2.63;;;15.40;59.50;;;;;;5065404;28;20149;-10
2023/01/22 01:26:33;;;;;;;2.88;2.67;;;15.30;59.40;;;;;;5060546;28;20051;-17
2023/01/22 01:28:59;;;;;;;3.05;2.85;;;15.30;59.50;;;;;;5060688;28;20105;-8
2023/01/22 01:31:24;;;;;;;2.60;2.50;;;15.30;59.50;;;;;;5065959;28;20540;-17
2023/01/22 01:33:50;;;;;;;2.80;2.65;;;15.30;59.50;;;;;;5061158;28;20041;-11
2023/01/22 01:36:20;;;;;;;2.63;2.50;;;15.30;59.40;;;;;;5058410;28;20102;-8
2023/01/22 01:38:46;;;;;;;2.70;2.60;;;15.30;59.50;;;;;;5063972;28;20055;-9
2023/01/22 01:41:13;;;;;;;2.72;2.53;;;15.30;59.30;;;;;;5057347;28;20065;-12
2023/01/22 01:43:39;;;;;;;3.10;2.90;;;15.20;59.50;;;;;;5061732;28;20044;-7
2023/01/22 01:46:10;;;;;;;2.53;2.42;;;15.30;59.50;;;;;;5065117;28;20056;-9
2023/01/22 01:48:47;;;;;;;2.63;2.42;;;15.20;59.50;;;;;;5073324;28;20467;-17
2023/01/22 01:51:32;;;;;;;3.20;3.00;;;15.30;59.60;;;;;;5064161;28;20044;-18
2023/01/22 01:53:58;;;;;;;2.40;2.30;;;15.20;59.70;;;;;;5073464;28;20545;-16
2023/01/22 01:56:26;;;;;;;2.40;2.30;;;15.20;59.80;;;;;;5076071;28;20052;-17
2023/01/22 01:58:54;;;;;;;2.50;2.40;;;15.20;59.70;;;;;;5059971;28;20097;-17
2023/01/22 02:01:20;;;;;;;3.00;2.80;;;15.20;59.50;;;;;;5064082;28;20556;-21
2023/01/22 02:03:46;;;;;;;2.53;2.42;;;15.20;59.70;;;;;;5077757;28;20040;-17
2023/01/22 02:06:14;;;;;;;2.70;2.50;;;15.20;59.60;;;;;;5066311;28;20174;-18
2023/01/22 02:08:40;;;;;;;2.75;2.63;;;15.20;59.50;;;;;;5062736;28;20052;-17
2023/01/22 02:11:05;;;;;;;2.58;2.47;;;15.20;59.60;;;;;;5063052;28;20036;-24
2023/01/22 02:13:32;;;;;;;2.53;2.42;;;15.20;59.50;;;;;;5062281;28;20502;-19
2023/01/22 02:15:57;;;;;;;2.40;2.30;;;15.10;59.60;;;;;;5068453;28;20127;-31
2023/01/22 02:18:23;;;;;;;2.85;2.65;;;15.10;59.70;;;;;;5059655;28;20127;-18
2023/01/22 02:20:53;;;;;;;2.65;2.55;;;15.20;59.70;;;;;;5062090;28;20095;-23
2023/01/22 02:23:19;;;;;;;2.70;2.50;;;15.20;59.50;;;;;;5079317;28;20179;-19
2023/01/22 02:25:45;;;;;;;2.63;2.42;;;15.10;59.60;;;;;;5060875;28;20691;-21
2023/01/22 02:28:10;;;;;;;2.50;2.40;;;15.10;59.60;;;;;;5060105;28;20040;-18
2023/01/22 02:30:36;;;;;;;2.05;1.95;;;15.20;59.60;;;;;;5056097;28;20518;-28
2023/01/22 02:33:01;;;;;;;2.45;2.35;;;15.10;59.50;;;;;;5064782;28;20040;-18
2023/01/22 02:35:27;;;;;;;2.40;2.20;;;15.10;59.50;;;;;;5063054;28;20098;-31
2023/01/22 02:37:52;;;;;;;2.33;2.22;;;15.20;59.50;;;;;;5070602;28;20042;-17
2023/01/22 02:40:18;;;;;;;1.98;1.88;;;15.10;59.50;;;;;;5064405;28;20194;-17
2023/01/22 02:42:43;;;;;;;2.13;2.00;;;15.10;59.60;;;;;;5070295;28;20040;-17
2023/01/22 02:45:09;;;;;;;2.40;2.30;;;15.10;59.70;;;;;;5063866;28;20430;-17
2023/01/22 02:47:35;;;;;;;2.53;2.42;;;15.10;59.50;;;;;;5070169;28;20048;-17
2023/01/22 02:50:01;;;;;;;2.30;2.10;;;15.20;59.50;;;;;;5065572;28;20040;-19
2023/01/22 02:52:27;;;;;;;2.20;2.10;;;15.10;59.70;;;;;;5069365;28;20044;-18
2023/01/22 02:54:52;;;;;;;2.42;2.33;;;15.10;59.60;;;;;;5063261;28;20426;-17
2023/01/22 02:57:18;;;;;;;2.15;2.05;;;15.10;59.60;;;;;;5067587;28;20077;-19
2023/01/22 02:59:43;;;;;;;2.17;2.08;;;15.10;59.60;;;;;;5065311;28;20517;-18
2023/01/22 03:02:09;;;;;;;2.28;2.17;;;15.10;59.50;;;;;;5063195;28;20040;-17
2023/01/22 03:04:34;;;;;;;2.38;2.28;;;15.10;59.40;;;;;;5072067;28;20162;-26
2023/01/22 03:07:00;;;;;;;2.30;2.20;;;15.10;59.50;;;;;;5044336;28;20037;-21
2023/01/22 03:09:26;;;;;;;2.13;2.03;;;15.10;59.50;;;;;;5048456;28;20719;-18
2023/01/22 03:11:51;;;;;;;2.20;2.10;;;15.10;59.50;;;;;;5046251;28;20122;-22
2023/01/22 03:22:29;;;;;;;2.13;2.03;;;15.00;60.00;;;;;;5056141;28;20047;-18
2023/01/22 03:24:57;;;;;;;2.15;2.05;;;15.10;59.40;;;;;;5047838;28;20045;-17
2023/01/22 03:27:24;;;;;;;2.10;2.00;;;15.00;59.30;;;;;;5059695;28;20057;-17
2023/01/22 03:29:49;;;;;;;2.30;2.20;;;15.00;59.50;;;;;;5048507;28;20503;-23
2023/01/22 03:32:15;;;;;;;2.00;1.90;;;15.00;59.40;;;;;;5047236;28;20087;-17
2023/01/22 03:34:40;;;;;;;1.95;1.85;;;15.00;59.40;;;;;;5057711;28;20036;-20
2023/01/22 03:37:06;;;;;;;2.10;2.00;;;15.00;59.50;;;;;;5061615;28;20494;-24
2023/01/22 03:39:32;;;;;;;2.30;2.20;;;15.00;59.50;;;;;;5062209;28;20055;-21
2023/01/22 03:41:57;;;;;;;1.95;1.85;;;15.00;59.40;;;;;;5062163;28;20415;-18
2023/01/22 03:44:23;;;;;;;2.00;1.90;;;15.00;59.50;;;;;;5045926;28;20473;-17
2023/01/22 03:46:49;;;;;;;2.10;2.00;;;15.00;59.50;;;;;;5057409;28;20237;-26
2023/01/22 03:49:14;;;;;;;1.90;1.80;;;15.00;59.40;;;;;;5052811;28;20040;-19
2023/01/22 03:51:41;;;;;;;1.92;1.83;;;15.00;59.90;;;;;;5052877;28;20048;-26
2023/01/22 03:54:11;;;;;;;2.20;2.10;;;14.90;59.40;;;;;;5059765;28;20056;-27
2023/01/22 03:56:37;;;;;;;2.17;2.08;;;15.00;59.40;;;;;;5062150;28;20574;-29
2023/01/22 03:59:02;;;;;;;2.00;1.90;;;14.90;59.50;;;;;;5059405;28;20133;-21
2023/01/22 04:01:28;;;;;;;2.20;2.10;;;14.90;59.40;;;;;;5061713;28;20052;-18
2023/01/22 04:03:54;;;;;;;1.73;1.63;;;15.00;59.40;;;;;;5053513;28;20151;-18
2023/01/22 04:06:20;;;;;;;2.10;2.00;;;14.90;59.40;;;;;;5050635;28;20047;-17
2023/01/22 04:08:46;;;;;;;1.88;1.77;;;14.90;59.40;;;;;;5056692;28;20048;-21
2023/01/22 04:11:12;;;;;;;2.10;2.00;;;14.90;59.50;;;;;;5068290;28;20091;-24
2023/01/22 04:13:38;;;;;;;2.05;1.95;;;14.90;59.50;;;;;;5059869;28;20455;-21
2023/01/22 04:16:04;;;;;;;2.13;2.03;;;14.90;59.30;;;;;;5063336;28;20033;-34
2023/01/22 04:18:30;;;;;;;2.20;2.10;;;14.90;59.50;;;;;;5067095;28;20052;-24
2023/01/22 04:20:56;;;;;;;2.10;2.00;;;14.80;59.30;;;;;;5058761;28;20045;-29
2023/01/22 04:23:21;;;;;;;2.20;2.10;;;14.90;59.50;;;;;;5065974;28;20057;-18
2023/01/22 04:25:47;;;;;;;1.90;1.80;;;14.80;59.50;;;;;;5047478;28;20045;-19
2023/01/22 04:28:15;;;;;;;1.90;1.80;;;14.90;59.50;;;;;;5048620;28;20049;-18
2023/01/22 04:30:42;;;;;;;1.77;1.67;;;14.80;59.40;;;;;;5055817;28;20040;-20
2023/01/22 04:33:07;;;;;;;1.95;1.85;;;14.80;59.50;;;;;;5054494;28;20048;-30
2023/01/22 04:35:33;;;;;;;1.73;1.63;;;14.80;59.30;;;;;;5070634;28;20104;-23
2023/01/22 04:37:59;;;;;;;1.83;1.73;;;14.80;59.40;;;;;;5052290;28;20124;-23
2023/01/22 04:40:25;;;;;;;1.90;1.80;;;14.80;59.40;;;;;;5060521;28;20049;-28
2023/01/22 04:42:51;;;;;;;2.00;1.90;;;14.90;59.50;;;;;;5043373;28;20115;-22
2023/01/22 04:45:16;;;;;;;2.20;2.10;;;14.90;59.40;;;;;;5059752;28;20049;-34
2023/01/22 04:47:43;;;;;;;2.00;1.90;;;14.80;59.90;;;;;;5043055;28;20041;-21
2023/01/22 04:50:14;;;;;;;1.90;1.80;;;14.90;59.40;;;;;;5043839;28;20051;-22
2023/01/22 04:52:39;;;;;;;1.80;1.70;;;14.80;59.20;;;;;;5045388;28;20045;-29
2023/01/22 04:55:06;;;;;;;1.90;1.80;;;14.80;59.40;;;;;;5053453;28;20053;-27
2023/01/22 04:57:31;;;;;;;2.10;2.00;;;14.80;59.40;;;;;;5066577;28;20044;-39
2023/01/22 04:59:57;;;;;;;1.90;1.80;;;14.80;59.50;;;;;;5050701;28;20033;-26
2023/01/22 05:02:22;;;;;;;1.92;1.83;;;14.70;59.40;;;;;;5040254;28;20041;-31
2023/01/22 05:04:48;;;;;;;2.30;2.20;;;14.80;59.40;;;;;;5045624;28;20043;-22
2023/01/22 05:07:13;;;;;;;1.90;1.80;;;14.80;59.40;;;;;;5062706;28;20426;-34
2023/01/22 05:09:39;;;;;;;1.98;1.88;;;14.80;59.30;;;;;;5062081;28;20075;-33
2023/01/22 05:12:05;;;;;;;1.90;1.80;;;14.80;59.30;;;;;;5040530;28;20135;-25
2023/01/22 05:14:30;;;;;;;1.98;1.88;;;14.80;59.40;;;;;;5044880;28;20049;-32
2023/01/22 05:16:56;;;;;;;1.85;1.75;;;14.80;59.30;;;;;;5041347;28;20087;-39
2023/01/22 05:19:21;;;;;;;2.25;2.10;;;14.80;59.20;;;;;;5044330;28;20419;-28
2023/01/22 05:21:47;;;;;;;1.98;1.88;;;14.80;59.40;;;;;;5046187;28;20049;-28
2023/01/22 05:24:12;;;;;;;1.80;1.70;;;14.80;59.20;;;;;;5043059;28;20074;-24
2023/01/22 05:26:38;;;;;;;2.00;1.90;;;14.80;59.30;;;;;;5058213;28;20517;-24
2023/01/22 05:29:03;;;;;;;1.90;1.80;;;14.80;59.30;;;;;;5050092;28;20387;-30
2023/01/22 05:31:29;;;;;;;2.17;2.08;;;14.70;59.10;;;;;;5044651;28;20503;-21
2023/01/22 05:33:55;;;;;;;1.98;1.88;;;14.80;59.40;;;;;;5053664;28;20131;-21
2023/01/22 05:36:20;;;;;;;1.58;1.55;;;14.80;59.10;;;;;;5053821;28;20044;-24
2023/01/22 05:38:46;;;;;;;1.92;1.83;;;14.80;59.20;;;;;;5057123;28;20376;-24
2023/01/22 05:41:12;;;;;;;1.83;1.73;;;14.80;59.30;;;;;;5045434;28;20143;-19
2023/01/22 05:43:37;;;;;;;2.03;1.92;;;14.70;59.20;;;;;;5047239;28;20562;-18
2023/01/22 05:46:03;;;;;;;1.90;1.80;;;14.70;59.20;;;;;;5047803;28;20053;-26
2023/01/22 05:48:31;;;;;;;1.98;1.88;;;14.80;59.30;;;;;;5045801;28;20108;-23
2023/01/22 05:50:56;;;;;;;1.70;1.60;;;14.70;59.20;;;;;;5051553;28;20502;-29
2023/01/22 05:53:22;;;;;;;1.67;1.58;;;14.80;59.30;;;;;;5062010;28;20262;-21
2023/01/22 05:55:47;;;;;;;1.83;1.73;;;14.70;59.30;;;;;;5051092;28;20049;-21
2023/01/22 05:58:13;;;;;;;1.85;1.75;;;14.70;59.40;;;;;;5041791;28;20040;-26
2023/01/22 06:00:38;;;;;;;1.98;1.88;;;14.70;59.20;;;;;;5040139;28;20025;-21
2023/01/22 06:03:04;;;;;;;1.75;1.65;;;14.70;59.30;;;;;;5052062;28;20029;-18
2023/01/22 06:05:30;;;;;;;1.67;1.58;;;14.70;59.30;;;;;;5048868;28;20047;-28
2023/01/22 06:07:55;;;;;;;1.40;1.40;;;14.70;59.40;;;;;;5050047;28;20068;-36
2023/01/22 06:10:21;;;;;;;1.80;1.70;;;14.70;59.20;;;;;;5046777;28;20040;-22
2023/01/22 06:12:46;;;;;;;1.80;1.70;;;14.70;59.20;;;;;;5060136;28;20513;-29
2023/01/22 06:15:12;;;;;;;1.85;1.75;;;14.70;59.30;;;;;;5067588;28;20093;-19
2023/01/22 06:17:37;;;;;;;1.75;1.65;;;14.70;59.30;;;;;;5054017;28;20056;-29
2023/01/22 06:20:04;;;;;;;1.90;1.80;;;14.70;60.10;;;;;;5044819;28;20037;-33
2023/01/22 06:22:29;;;;;;;2.03;1.92;;;14.70;59.20;;;;;;5049412;28;20045;-24
2023/01/22 06:24:55;;;;;;;2.00;1.90;;;14.70;59.20;;;;;;5059743;28;20123;-28
2023/01/22 06:27:20;;;;;;;1.60;1.60;;;14.70;59.20;;;;;;5053356;28;20532;-24
2023/01/22 06:29:46;;;;;;;1.83;1.73;;;14.70;59.10;;;;;;5050902;28;20048;-23
2023/01/22 06:32:11;;;;;;;1.70;1.60;;;14.60;59.20;;;;;;5045190;28;20049;-22
2023/01/22 06:34:37;;;;;;;1.90;1.80;;;14.70;59.40;;;;;;5052020;28;20044;-27
2023/01/22 06:37:03;;;;;;;2.00;1.90;;;14.70;59.80;;;;;;5046583;28;20116;-19
2023/01/22 06:39:28;;;;;;;1.60;1.50;;;14.70;59.20;;;;;;5054795;28;20116;-27
2023/01/22 06:41:54;;;;;;;1.67;1.58;;;14.60;59.10;;;;;;5056854;28;20372;-21
2023/01/22 06:44:20;;;;;;;1.50;1.40;;;14.60;59.30;;;;;;5046638;28;20101;-23
2023/01/22 06:46:46;;;;;;;1.50;1.48;;;14.70;59.20;;;;;;5053101;28;20080;-32
2023/01/22 06:49:11;;;;;;;1.70;1.60;;;14.70;59.10;;;;;;5044146;28;20040;-28
2023/01/22 06:51:37;;;;;;;1.80;1.70;;;14.70;59.20;;;;;;5046413;28;20076;-19
2023/01/22 06:54:03;;;;;;;1.55;1.55;;;14.60;59.10;;;;;;5053104;28;20459;-18
2023/01/22 06:56:28;;;;;;;1.50;1.40;;;14.60;59.10;;;;;;5053813;28;20061;-22
2023/01/22 06:58:54;;;;;;;1.70;1.60;;;14.60;59.20;;;;;;5050889;28;20161;-36
2023/01/22 07:01:19;;;;;;;1.52;1.42;;;14.60;59.10;;;;;;5047866;28;20522;-18
2023/01/22 07:03:45;;;;;;;1.70;1.60;;;14.60;59.10;;;;;;5045604;28;20685;-34
2023/01/22 07:06:11;;;;;;;1.50;1.40;;;14.60;59.20;;;;;;5042490;28;20047;-14
2023/01/22 07:08:36;;;;;;;1.65;1.55;;;14.60;59.20;;;;;;5042221;28;20135;-30
2023/01/22 07:11:02;;;;;;;1.55;1.40;;;14.60;59.10;;;;;;5057792;28;22430;-25
2023/01/22 07:13:27;;;;;;;1.38;1.33;;;14.60;59.10;;;;;;5061578;28;20090;-27
2023/01/22 07:15:53;;;;;;;1.48;1.38;;;14.60;59.20;;;;;;5057509;28;20071;-24
2023/01/22 07:18:20;;;;;;;1.50;1.40;;;14.60;59.30;;;;;;5053139;28;20041;-25
2023/01/22 07:20:46;;;;;;;1.40;1.30;;;14.60;59.10;;;;;;5048090;28;20045;-29
2023/01/22 07:23:12;;;;;;;2.50;1.75;;;14.60;59.80;;;;;;5046769;28;20063;-30
2023/01/22 07:25:37;;;;;;;1.70;1.60;;;14.60;59.20;;;;;;5064391;28;20080;-36
2023/01/22 07:28:04;;;;;;;1.42;1.40;;;14.60;59.20;;;;;;5069493;28;20037;-25
2023/01/22 07:30:29;;;;;;;1.70;1.60;;;14.60;59.20;;;;;;5064548;28;20060;-22
2023/01/22 07:32:59;;;;;;;1.55;1.45;;;14.50;59.20;;;;;;5055766;28;20064;-25
2023/01/22 07:35:25;;;;;;;1.45;1.40;;;14.50;59.10;;;;;;5051723;28;20055;-19
2023/01/22 07:37:51;;;;;;;1.50;1.40;;;14.60;59.40;;;;;;5055763;28;20045;-35
2023/01/22 07:40:17;;;;;;;1.52;1.42;;;14.60;59.10;;;;;;5048854;28;20048;-35
2023/01/22 07:42:43;;;;;;;1.90;1.80;;;14.60;59.30;;;;;;5047981;28;20045;-32
2023/01/22 07:45:08;;;;;;;1.60;1.50;;;14.50;59.00;;;;;;5047262;28;20040;-21
2023/01/22 07:47:34;;;;;;;1.80;1.70;;;14.60;58.90;;;;;;5056664;28;20147;-22
2023/01/22 07:50:00;;;;;;;1.60;1.50;;;14.60;59.30;;;;;;5061141;28;20736;-30
2023/01/22 07:52:25;;;;;;;1.58;1.48;;;14.50;59.70;;;;;;5060026;28;20028;-23
2023/01/22 07:54:51;;;;;;;1.85;1.75;;;14.50;59.20;;;;;;5056632;28;20041;-27
2023/01/22 07:57:17;;;;;;;1.60;1.50;;;14.50;59.00;;;;;;5048339;28;20430;-34
2023/01/22 07:59:43;;;;;;;1.25;1.20;;;14.50;59.10;;;;;;5048509;28;20400;-18
2023/01/22 08:02:12;;;;;;;1.33;1.27;;;14.50;59.20;;;;;;5056679;28;20032;-18
2023/01/22 08:04:39;;;;;;;1.38;1.38;;;14.50;59.20;;;;;;5064594;28;20105;-25
2023/01/22 08:07:05;;;;;;;1.70;1.60;;;14.50;59.20;;;;;;5061054;28;20047;-20
2023/01/22 08:09:30;;;;;;;1.35;1.30;;;14.40;59.20;;;;;;5043132;28;20033;-21
2023/01/22 08:11:56;;;;;;;1.40;1.40;;;14.50;59.20;;;;;;5068665;28;20238;-19
2023/01/22 08:14:21;;;;;;;1.70;1.60;;;14.50;59.10;;;;;;5065631;28;20045;-33
2023/01/22 08:16:47;;;;;;;1.70;1.60;;;14.50;59.10;;;;;;5057895;28;20060;-18
2023/01/22 08:19:12;;;;;;;1.50;1.40;;;14.50;59.20;;;;;;5048228;28;20041;-19
2023/01/22 08:21:38;;;;;;;1.35;1.35;;;14.50;59.10;;;;;;5048056;28;20056;-31
2023/01/22 08:24:04;;;;;;;1.88;1.77;;;14.50;59.10;;;;;;5056401;28;20571;-28
2023/01/22 08:26:30;;;;;;;1.33;1.33;;;14.40;59.10;;;;;;5064620;28;20040;-18
2023/01/22 08:28:55;;;;;;;1.27;1.27;;;14.50;59.00;;;;;;5058013;28;20036;-18
2023/01/22 08:31:21;;;;;;;1.30;1.30;;;14.50;58.90;;;;;;5046898;28;20090;-17
2023/01/22 08:33:46;;;;;;;1.52;1.48;;;14.50;59.10;;;;;;5048533;28;20079;-21
2023/01/22 08:36:12;;;;;;;1.30;1.30;;;14.50;59.00;;;;;;5050942;28;20041;-29
2023/01/22 08:38:37;;;;;;;1.55;1.45;;;14.50;59.10;;;;;;5063274;28;20049;-30
2023/01/22 08:41:03;;;;;;;1.45;1.38;;;14.50;59.10;;;;;;5064038;28;20040;-27
2023/01/22 08:43:28;;;;;;;1.20;1.20;;;14.50;59.10;;;;;;5059279;28;20487;-30
2023/01/22 08:45:54;;;;;;;1.50;1.40;;;14.50;59.10;;;;;;5061112;28;20040;-28
2023/01/22 08:48:20;;;;;;;1.70;1.60;;;14.50;59.60;;;;;;5045390;28;20622;-19
2023/01/22 08:50:45;;;;;;;1.65;1.55;;;14.50;59.00;;;;;;5048883;28;20037;-18
2023/01/22 08:53:11;;;;;;;1.40;1.40;;;14.50;59.10;;;;;;5045778;28;20163;-22
2023/01/22 08:55:36;;;;;;;1.50;1.40;;;14.50;58.90;;;;;;5046925;28;20045;-21
2023/01/22 08:58:02;;;;;;;1.33;1.30;;;14.50;59.00;;;;;;4702717;28;10000914;-24
2023/01/22 09:00:28;;;;;;;1.60;1.50;;;14.50;59.20;;;;;;5040697;28;20052;-27
2023/01/22 09:02:58;;;;;;;1.60;1.50;;;14.70;59.00;;;;;;5043235;28;20106;-18
2023/01/22 09:05:23;;;;;;;1.38;1.38;;;14.70;58.80;;;;;;5038941;28;20045;-25
2023/01/22 09:07:49;;;;;;;1.20;1.20;;;14.70;59.20;;;;;;5043257;28;20408;-24
2023/01/22 09:10:14;;;;;;;1.65;1.55;;;14.80;59.10;;;;;;5059004;28;20410;-23
2023/01/22 09:12:40;;;;;;;1.48;1.38;;;14.90;59.60;;;;;;5049552;28;20136;-19
2023/01/22 09:15:07;;;;;;;1.58;1.52;;;14.90;59.10;;;;;;5041188;28;20037;-23
2023/01/22 09:17:33;;;;;;;1.50;1.40;;;14.90;59.00;;;;;;5037957;28;20110;-19
2023/01/22 09:19:58;;;;;;;1.70;1.60;;;14.90;58.80;;;;;;5041907;28;20056;-18
2023/01/22 09:22:24;;;;;;;1.98;1.88;;;15.00;59.00;;;;;;5053855;28;20499;-20
2023/01/22 09:24:49;;;;;;;1.45;1.40;;;15.00;59.00;;;;;;5048097;28;20154;-28
2023/01/22 09:27:15;;;;;;;1.67;1.40;;;14.90;59.00;;;;;;5039941;28;20056;-19
2023/01/22 09:29:41;;;;;;;1.38;1.27;;;14.80;59.20;;;;;;5041940;28;20160;-32
2023/01/22 09:32:07;;;;;;;1.25;1.25;;;14.70;59.40;;;;;;5038599;28;20052;-20
2023/01/22 09:34:33;;;;;;;1.58;1.48;;;14.60;60.20;;;;;;5054930;28;20062;-18
2023/01/22 09:37:01;;;;;;;3.28;1.70;;;14.60;60.30;;;;;;5047962;28;20110;-19
2023/01/22 09:39:27;;;;;;;2.10;2.00;;;14.70;60.10;;;;;;5045261;28;20052;-23
2023/01/22 09:41:53;;;;;;;2.58;1.50;;;14.80;59.90;;;;;;5032874;28;20090;-25
2023/01/22 09:44:20;;;;;;;1.75;1.65;;;14.70;60.20;;;;;;5042274;28;20049;-31
2023/01/22 09:46:51;;;;;;;1.75;1.55;;;14.90;60.30;;;;;;5056497;28;20163;-41
2023/01/22 09:49:19;;;;;;;2.35;1.27;;;15.10;59.80;;;;;;5043293;28;20068;-23
2023/01/22 09:52:00;;;;;;;2.33;1.45;;;15.40;59.40;;;;;;5037241;28;20053;-37
2023/01/22 09:54:26;;;;;;;1.60;1.50;;;15.50;59.10;;;;;;5034607;28;20472;-32
2023/01/22 09:56:53;;;;;;;1.33;1.33;;;15.40;59.00;;;;;;5044349;28;20048;-39
2023/01/22 09:59:20;;;;;;;1.60;1.42;;;15.50;59.20;;;;;;5039782;28;20072;-51
2023/01/22 10:01:50;;;;;;;3.53;1.40;;;15.50;59.20;;;;;;5036992;28;20049;-31
2023/01/22 10:04:24;;;;;;;2.67;1.45;;;15.50;59.10;;;;;;5051757;28;20060;-25
2023/01/22 10:06:50;;;;;;;2.13;1.50;;;15.50;59.10;;;;;;5034859;28;20052;-17
2023/01/22 10:09:17;;;;;;;1.20;1.20;;;15.50;59.20;;;;;;5061748;28;20049;-17
2023/01/22 10:11:44;;;;;;;1.48;1.38;;;15.50;59.10;;;;;;5029271;28;20041;-19
2023/01/22 10:14:13;;;;;;;1.48;1.38;;;15.60;59.30;;;;;;5054874;28;20059;-23
2023/01/22 10:16:39;;;;;;;1.58;1.45;;;15.50;59.20;;;;;;5029096;28;20167;-19
2023/01/22 10:19:23;;;;;;;1.48;1.38;;;15.50;59.30;;;;;;5041019;28;20033;-29
2023/01/22 10:21:55;;;;;;;1.60;1.50;;;15.50;59.30;;;;;;5047240;28;20069;-32
2023/01/22 10:24:20;;;;;;;2.08;1.70;;;15.50;59.40;;;;;;5023181;28;20044;-18
2023/01/22 10:26:51;;;;;;;1.38;1.30;;;15.40;59.50;;;;;;5046191;28;20081;-35
2023/01/22 10:29:29;;;;;;;1.70;1.60;;;15.40;59.60;;;;;;5040638;28;20091;-28
2023/01/22 10:32:19;;;;;;;2.30;1.50;;;15.40;59.80;;;;;;5052825;28;20049;-17
2023/01/22 10:35:15;;;;;;;1.60;1.50;;;15.30;59.90;;;;;;5049870;28;20049;-31
2023/01/22 10:37:50;;;;;;;1.40;1.30;;;15.40;59.80;;;;;;5041161;28;20048;-17
2023/01/22 10:40:42;;;;;;;2.47;1.48;;;15.50;59.80;;;;;;5047332;28;20072;-28
2023/01/22 10:43:12;;;;;;;1.42;1.33;;;15.40;59.80;;;;;;5033053;28;20048;-17
2023/01/22 10:45:48;;;;;;;1.40;1.30;;;15.40;59.90;;;;;;5038064;28;20041;-24
2023/01/22 10:48:15;;;;;;;2.55;1.60;;;15.40;59.90;;;;;;5043562;28;20037;-37
2023/01/22 10:50:41;;;;;;;1.20;1.20;;;15.40;60.00;;;;;;5049403;28;20029;-28
2023/01/22 10:53:18;;;;;;;1.20;1.20;;;15.30;60.20;;;;;;5037327;28;20067;-19
2023/01/22 10:55:50;;;;;;;1.70;1.60;;;15.30;60.20;;;;;;5054954;28;20147;-18
2023/01/22 10:58:16;;;;;;;1.52;1.42;;;15.30;60.30;;;;;;5047554;28;20052;-19
2023/01/22 11:00:41;;;;;;;1.27;1.17;;;15.30;60.40;;;;;;5061948;28;20051;-31
2023/01/22 11:03:20;;;;;;;1.25;1.25;;;15.40;60.30;;;;;;5049949;28;20574;-23
2023/01/22 11:05:46;;;;;;;1.60;1.50;;;15.40;60.20;;;;;;5054655;28;20059;-20
2023/01/22 11:08:15;;;;;;;1.65;1.55;;;15.40;60.30;;;;;;5061010;28;20053;-23
2023/01/22 11:10:52;;;;;;;1.63;1.52;;;15.40;60.40;;;;;;5040291;28;20041;-18
2023/01/22 11:13:48;;;;;;;1.50;1.40;;;15.40;60.30;;;;;;5068649;28;20071;-18
2023/01/22 11:16:21;;;;;;;1.35;1.30;;;15.40;60.60;;;;;;5041321;28;20036;-18
2023/01/22 11:18:58;;;;;;;1.67;1.58;;;15.40;60.60;;;;;;5049768;28;20106;-17
2023/01/22 11:21:32;;;;;;;1.80;1.70;;;15.50;60.60;;;;;;5066227;28;20040;-18
2023/01/22 11:23:58;;;;;;;1.45;1.30;;;15.50;60.50;;;;;;5060349;28;20045;-18
2023/01/22 11:26:47;;;;;;;1.40;1.30;;;15.50;60.40;;;;;;5064263;28;20145;-17
2023/01/22 11:29:30;;;;;;;1.50;1.40;;;15.60;60.20;;;;;;5076989;28;20079;-19
2023/01/22 11:32:20;;;;;;;2.97;1.40;;;15.50;60.20;;;;;;5051472;28;20504;-17
2023/01/22 11:35:07;;;;;;;2.28;1.35;;;15.50;60.10;;;;;;5043711;28;20113;-18
2023/01/22 11:37:57;;;;;;;1.50;1.40;;;15.50;60.00;;;;;;5045961;28;20132;-28
2023/01/22 11:40:33;;;;;;;1.33;1.33;;;15.60;59.90;;;;;;5048720;28;20156;-25
2023/01/22 11:43:27;;;;;;;1.58;1.48;;;15.60;59.80;;;;;;5071009;28;20525;-27
2023/01/22 11:46:14;;;;;;;1.63;1.52;;;15.60;60.30;;;;;;5051555;28;20528;-18
2023/01/22 11:49:08;;;;;;;1.67;1.58;;;15.60;59.90;;;;;;5044076;28;20056;-19
2023/01/22 11:51:46;;;;;;;1.17;1.17;;;15.60;59.80;;;;;;5054280;28;20056;-18
2023/01/22 11:54:24;;;;;;;1.10;1.10;;;15.60;59.80;;;;;;5052101;28;20025;-32
2023/01/22 11:57:07;;;;;;;1.50;1.40;;;15.70;59.70;;;;;;5042041;28;20052;-18
2023/01/22 11:59:45;;;;;;;1.70;1.53;;;15.60;59.70;;;;;;5059943;28;20139;-20
2023/01/22 12:02:10;;;;;;;1.45;1.25;;;15.60;59.70;;;;;;5042761;28;20040;-18
2023/01/22 12:05:01;;;;;;;1.20;1.10;;;15.60;59.70;;;;;;5055531;28;20098;-19
2023/01/22 12:08:04;;;;;;;1.35;1.25;;;15.60;59.80;;;;;;5054763;28;20112;-18
2023/01/22 12:10:36;;;;;;;1.33;1.25;;;15.60;59.80;;;;;;5062229;28;20080;-28
2023/01/22 12:13:25;;;;;;;1.08;1.08;;;15.60;59.70;;;;;;5084137;28;20690;-19
2023/01/22 12:16:18;;;;;;;1.48;1.38;;;15.60;59.70;;;;;;5044857;28;20060;-23
2023/01/22 12:19:09;;;;;;;1.27;1.27;;;15.60;59.70;;;;;;5027039;28;20504;-33
2023/01/22 12:21:44;;;;;;;1.55;1.40;;;15.60;59.60;;;;;;5017599;28;20490;-19
2023/01/22 12:24:40;;;;;;;1.50;1.50;;;15.60;59.60;;;;;;5042089;28;20067;-26
2023/01/22 12:27:17;;;;;;;1.10;1.10;;;15.60;59.50;;;;;;5037387;28;20219;-37
2023/01/22 12:29:52;;;;;;;0.93;0.93;;;15.60;59.50;;;;;;5025926;28;20053;-22
2023/01/22 12:32:20;;;;;;;1.13;1.00;;;15.70;59.40;;;;;;5041369;28;20049;-27
2023/01/22 12:35:04;;;;;;;1.33;1.30;;;15.70;59.40;;;;;;5040315;28;20124;-17
2023/01/22 12:37:47;;;;;;;1.20;1.17;;;15.70;59.40;;;;;;5043878;28;20032;-19
2023/01/22 12:40:18;;;;;;;1.10;1.10;;;15.70;59.20;;;;;;5038547;28;20739;-17
2023/01/22 12:42:52;;;;;;;1.83;1.10;;;15.70;59.30;;;;;;5040099;28;20033;-17
2023/01/22 12:45:20;;;;;;;1.27;1.27;;;15.70;59.30;;;;;;5044588;28;20663;-18
2023/01/22 12:47:58;;;;;;;1.38;1.33;;;15.70;59.20;;;;;;5036902;28;20033;-18
2023/01/22 12:50:24;;;;;;;1.10;1.10;;;15.70;59.20;;;;;;5039669;28;20539;-18
2023/01/22 12:53:03;;;;;;;1.35;1.23;;;15.70;59.30;;;;;;5040692;28;20041;-18
2023/01/22 12:55:33;;;;;;;0.90;0.90;;;15.70;59.30;;;;;;5040549;28;20049;-18
2023/01/22 12:57:59;;;;;;;1.08;1.08;;;15.70;59.30;;;;;;5045876;28;20037;-19
2023/01/22 13:00:33;;;;;;;1.10;1.10;;;15.70;59.20;;;;;;5057750;28;20040;-22
2023/01/22 13:03:00;;;;;;;;;;;15.70;59.10;;;;;;5053841;28;20041;-21